默认 日期 大小 文件数 浏览量 最新下载 xml
3d 11磁力链接相关资源由用户搜索指令自动获取,结果来源于网络,本站不存储任何资料,亦不承担任何责任,请于24小时内删除,搜索到439个磁力,用时19ms。
    {"packages": {"AAM": {"IPC": {"IPC.sig": 1809, "IPC.pima": 635567, "IPC.pimx": 58852}}, "ACC": {"ACCC": {"ACCC.sig": 1811, "ACCC.pima": 190, "ACCC.pimx": 22546}, "Utils": {"Utils.sig": 1814, "Utils.pima": 190, "Utils.pimx": 25455}}, "ADC": {"ADS": {"ADS. ...
创建时间: 2025-03-15 13:50:23 大小:2.5 GB 文件数量:206 热度:2 最近下载:2025-04-25 11:06:02
    ... .net.txt": 87, "Adobe Substance 3D Painter 11.0.0 (x64)": {"Setup ...
创建时间: 2025-03-17 15:09:11 大小:3.16 GB 文件数量:243 热度:1 最近下载:2025-03-17 22:44:03
    {"Patch": {"AdobeGenP.exe": 1268736, "Block Hosts.txt": 32047, "Adobe exe firewall block windows.bat": 2925}, "Setup": {"packages": {"AAM": {"IPC": {"IPC.sig": 1809, "IPC.pima": 635567, "IPC.pimx": 58852}}, "ACC": {"ACCC": {"ACCC.sig": 1811, "ACCC.pima": ...
创建时间: 2025-03-22 08:03:28 大小:2.5 GB 文件数量:203 热度:2 最近下载:2025-03-31 14:55:02
    ... 11.exe": 16400624, "Lantern 3D Screensaver v1.1 Build 11.exe": 12353968, "Dolphins 3D ... .exe": 34222760, "Discovery 3D Screensaver v1.2 Build 11.exe": 16268456, "Fireplace ... ": 37688056, "Mayan Waterfall 3D Screensaver v1.1 Build 11.exe": 24794848, "Medieval ...
创建时间: 2025-03-24 18:11:52 大小:3 GB 文件数量:91 热度:3 最近下载:2025-05-24 01:53:02
    {"Adobe Substance 3D Painter 11.0.0 (x64)": {"Setup": {"Setup": {" ...
创建时间: 2025-03-27 12:15:39 大小:3.36 GB 文件数量:242 热度:2 最近下载:2025-04-01 07:57:03
    {"p4l.nfo": 3662, "file_id.diz": 163, "gabi203.jpg": 640590, "gabi204.jpg": 706672, "gabi208.jpg": 739769, "gabi211.jpg": 771090, "gabi212.jpg": 729021, "gabi213.jpg": 782391, "gabi216.jpg": 498101, "gabi217.jpg": 538579, "gabi218.jpg": 545348, "gabi219. ...
创建时间: 2025-04-14 15:42:43 大小:11.49 MB 文件数量:23 热度:10 最近下载:2025-09-28 19:38:04
    {"Crack": {"Source": {"Skull.ico": 207673, "config.ini": 7751, "AdobeGenP-3.5.0.au3": 65902}, "AdobeGenP.exe": 1268736, "Прочитать.txt": 177}, "packages": {"AAM": {"IPC": {"IPC.sig": 1809, "IPC.pima": 635567, "IPC.pimx": 58852}}, "ACC": {"ACCC": {"ACCC.sig ...
创建时间: 2025-04-21 16:10:42 大小:2.51 GB 文件数量:203 热度:3 最近下载:2025-05-10 06:17:01
    ... 120 FPS P10.mp4": 22095379428, "3D FULL TB 8K T 8K ... 120 FPS P11.mp4": 15941094900, "3D FULL TB 8K T 8K ... 120 FPS P13.mp4": 22317274288, "3D FULL TB 8K T 8K ... 120 FPS P14.mp4": 30920085169, "3D FULL TB 8K T 8K ... 120 FPS P14.mp4": 37706052674, "3D FULL TB 8K T 8K ...
创建时间: 2025-05-22 19:24:56 大小:249 GB 文件数量:11 热度:2 最近下载:2025-09-17 17:57:05
    ... avi": 4678176768, "11.02.08 The Polar Express 3D 2004 BDRip.1080p ... avi": 4674396160, "11.02.08 The Polar Express 3D 2004 BDRip.1080p ... PAR2": 13988772, "11.02.08 The Polar Express 3D 2004 BDRip.1080p ... ": 27867852, "11.02.08 The Polar Express 3D 2004 BDRip.1080p ...
创建时间: 2025-08-30 16:23:02 大小:8.9 GB 文件数量:10 热度:4 最近下载:2025-09-15 14:16:20
    {"少年白马醉春风.E31.4K.mp4": 3740230323, "少年白马醉春风.E32.4K.mp4": 3807519594, "少年白马醉春风.E33.4K.mp4": 3594841476}
创建时间: 2025-09-08 09:14:31 大小:10.38 GB 文件数量:3 热度:47 最近下载:2025-10-05 12:54:07
    {"p4l.nfo": 3661, "file_id.diz": 162, "marta1102.jpg": 253258, "marta1105.jpg": 210141, "marta1111.jpg": 213838, "marta1113.jpg": 233471, "marta1115.jpg": 219549, "marta1116.jpg": 225173, "marta1117.jpg": 222268, "marta1118.jpg": 215347, "marta1122.jpg": ...
创建时间: 2025-11-13 16:40:47 大小:4.25 MB 文件数量:23 热度:0
    {"Key.txt": 27, "Setup.exe": 72303232, "readme.txt": 16, "Repackmaster.com.txt": 185}
创建时间: 2025-11-18 09:44:42 大小:68.95 MB 文件数量:4 热度:0
    {"_About.txt": 1481, "_Silent Install.cmd": 1057, "Interior 3D 12.0.exe": 472155339, "_Unpack Portable.cmd": 1068}
创建时间: 2025-11-23 17:12:00 大小:450.29 MB 文件数量:4 热度:0
    {"Autodesk AutoCAD Civil 3D v13.11.34 Pro Edition.iso": 10057875456}
创建时间: 2025-12-13 16:27:46 大小:9.37 GB 文件数量:1 热度:0
    {"88085eda_fukiMTse2HVC.mp4": 1819456960}
创建时间: 2025-12-22 14:19:30 大小:1.69 GB 文件数量:1 热度:0
    {"Autodesk 3D Studio Max 2009 (v.11) + crack + extras": {"msi": {"WindowsXP-KB898715- ...
创建时间: 2026-03-16 18:16:34 大小:2.66 GB 文件数量:1064 热度:0
    {"keygen 3d mark 11.rar": 61553, "Advanced Edition ... 138, "3DMark_11_v103_installer.exe": 294237056, "3DMark 11 Pre-Order Preview 1080p.mp4 ... ": 63150673, "3DMark 11 Deep Sea Tech Demo 1080p ... .mp4": 53654551, "3DMark 11 High Temple Tech Demo 1080p ...
创建时间: 2026-04-03 14:27:43 大小:440.15 MB 文件数量:6 热度:0
    {"readme.txt": 71, "3dcoat.license": 257, "3DCoat-2025-11.exe": 950996248}
创建时间: 2026-04-09 18:56:27 大小:906.94 MB 文件数量:3 热度:0
    ... ": 1069, "Install set.a.light 3D v3.1.11.exe": 248473560}
创建时间: 2026-04-22 14:16:26 大小:237.19 MB 文件数量:9 热度:0